createdAt,value
2022-11-27T00:00:01.460Z,14.80
2022-11-27T00:02:46.036Z,14.80
2022-11-27T00:05:32.459Z,14.80
2022-11-27T00:08:12.911Z,14.80
2022-11-27T00:10:59.457Z,14.80
2022-11-27T00:13:39.942Z,14.80
2022-11-27T00:16:27.477Z,14.80
2022-11-27T00:19:14.429Z,14.80
2022-11-27T00:21:54.497Z,14.80
2022-11-27T00:24:41.605Z,14.80
2022-11-27T00:27:28.492Z,14.80
2022-11-27T00:30:09.474Z,14.80
2022-11-27T00:32:56.417Z,14.80
2022-11-27T00:35:45.530Z,14.70
2022-11-27T00:38:25.520Z,14.80
2022-11-27T00:41:14.471Z,14.70
2022-11-27T00:44:01.433Z,14.70
2022-11-27T00:46:48.562Z,14.70
2022-11-27T00:49:28.435Z,14.70
2022-11-27T00:52:15.432Z,14.70
2022-11-27T00:54:55.584Z,14.60
2022-11-27T00:57:42.456Z,14.60
2022-11-27T01:00:23.528Z,14.60
2022-11-27T01:03:10.480Z,14.60
2022-11-27T01:05:50.497Z,14.60
2022-11-27T01:08:37.480Z,14.60
2022-11-27T01:11:33.456Z,14.60
2022-11-27T01:14:23.445Z,14.60
2022-11-27T01:17:03.593Z,14.50
2022-11-27T01:19:50.448Z,14.50
2022-11-27T01:22:37.453Z,14.50
2022-11-27T01:25:31.463Z,14.50
2022-11-27T01:28:18.566Z,14.50
2022-11-27T01:30:58.505Z,14.50
2022-11-27T01:33:45.544Z,14.50
2022-11-27T01:36:25.432Z,14.40
2022-11-27T01:39:06.059Z,14.40
2022-11-27T01:41:52.468Z,14.40
2022-11-27T01:44:39.773Z,14.40
2022-11-27T01:47:24.485Z,14.40
2022-11-27T01:50:20.417Z,14.40
2022-11-27T01:53:05.567Z,14.30
2022-11-27T01:55:56.437Z,14.30
2022-11-27T01:58:37.520Z,14.30
2022-11-27T02:01:24.539Z,14.30
2022-11-27T02:04:07.481Z,14.20
2022-11-27T02:06:54.441Z,14.20
2022-11-27T02:09:36.505Z,14.20
2022-11-27T02:12:46.457Z,14.20
2022-11-27T02:15:57.569Z,14.10
2022-11-27T02:18:55.468Z,14.10
2022-11-27T02:22:01.481Z,14.20
2022-11-27T02:25:05.460Z,14.10
2022-11-27T02:28:09.477Z,14.10
2022-11-27T02:31:03.527Z,14.10
2022-11-27T02:33:50.100Z,14.10
2022-11-27T02:36:40.443Z,14.10
2022-11-27T02:39:27.572Z,14.10
2022-11-27T02:42:27.432Z,14.10
2022-11-27T02:45:18.492Z,14.10
2022-11-27T02:48:00.099Z,14.10
2022-11-27T02:50:49.447Z,14.20
2022-11-27T02:53:37.717Z,14.10
2022-11-27T02:56:29.463Z,14.10
2022-11-27T02:59:13.788Z,14.10
2022-11-27T03:02:08.488Z,14.10
2022-11-27T03:04:59.563Z,14.10
2022-11-27T03:08:08.434Z,14.10
2022-11-27T03:10:58.345Z,14.10
2022-11-27T03:13:49.472Z,14.10
2022-11-27T03:16:42.491Z,14.10
2022-11-27T03:19:31.483Z,14.10
2022-11-27T03:22:19.468Z,14.10
2022-11-27T03:25:06.552Z,14.00
2022-11-27T03:27:55.440Z,14.00
2022-11-27T03:30:36.357Z,14.00
2022-11-27T03:33:23.444Z,14.00
2022-11-27T03:36:21.448Z,14.00
2022-11-27T03:39:09.440Z,14.00
2022-11-27T03:41:54.004Z,14.00
2022-11-27T03:45:32.436Z,14.00
2022-11-27T03:48:37.526Z,14.00
2022-11-27T03:51:27.451Z,14.00
2022-11-27T03:54:29.528Z,13.90
2022-11-27T03:57:28.438Z,13.90
2022-11-27T04:00:10.248Z,13.90
2022-11-27T04:02:59.449Z,13.90
2022-11-27T04:05:46.559Z,13.90
2022-11-27T04:08:27.452Z,13.90
2022-11-27T04:11:15.478Z,13.90
2022-11-27T04:14:02.427Z,13.90
2022-11-27T04:16:43.043Z,13.90
2022-11-27T04:19:29.466Z,13.90
2022-11-27T04:22:23.444Z,13.90
2022-11-27T04:25:17.437Z,13.90
2022-11-27T04:28:04.444Z,13.90
2022-11-27T04:30:51.468Z,13.90
2022-11-27T04:33:33.499Z,13.90
2022-11-27T04:36:20.498Z,13.90
2022-11-27T04:39:07.491Z,13.90
2022-11-27T04:41:47.520Z,13.90
2022-11-27T04:44:34.435Z,13.90
2022-11-27T04:47:21.497Z,13.90
2022-11-27T04:50:01.929Z,13.80
2022-11-27T04:52:48.436Z,13.80
2022-11-27T04:55:35.487Z,13.80
2022-11-27T04:58:15.452Z,13.80
2022-11-27T05:00:55.542Z,13.80
2022-11-27T05:03:36.112Z,13.80
2022-11-27T05:06:22.428Z,13.80
2022-11-27T05:09:09.505Z,13.80
2022-11-27T05:11:49.435Z,13.80
2022-11-27T05:14:30.079Z,13.80
2022-11-27T05:17:17.427Z,13.80
2022-11-27T05:19:57.917Z,13.80
2022-11-27T05:22:44.445Z,13.80
2022-11-27T05:25:38.449Z,13.80
2022-11-27T05:28:26.975Z,13.80
2022-11-27T05:31:06.501Z,13.80
2022-11-27T05:33:46.937Z,13.80
2022-11-27T05:36:33.437Z,13.70
2022-11-27T05:39:26.450Z,13.70
2022-11-27T05:42:13.432Z,13.70
2022-11-27T05:45:00.551Z,13.70
2022-11-27T05:47:40.485Z,13.80
2022-11-27T05:50:20.984Z,13.70
2022-11-27T05:53:07.458Z,13.80
2022-11-27T05:55:54.505Z,13.80
2022-11-27T05:58:34.499Z,13.70
2022-11-27T06:01:22.444Z,13.70
2022-11-27T06:04:09.425Z,13.70
2022-11-27T06:06:56.669Z,13.80
2022-11-27T06:09:43.455Z,13.70
2022-11-27T06:12:30.457Z,13.80
2022-11-27T06:15:11.516Z,13.70
2022-11-27T06:17:58.416Z,13.70
2022-11-27T06:20:43.366Z,13.70
2022-11-27T06:23:37.436Z,13.70
2022-11-27T06:26:27.596Z,13.80
2022-11-27T06:29:08.436Z,13.80
2022-11-27T06:31:49.038Z,13.70
2022-11-27T06:34:35.455Z,13.80
2022-11-27T06:37:22.496Z,13.80
2022-11-27T06:40:02.451Z,13.80
2022-11-27T06:42:49.527Z,13.80
2022-11-27T06:45:30.513Z,13.80
2022-11-27T06:48:17.562Z,13.80
2022-11-27T06:50:57.470Z,13.80
2022-11-27T06:53:45.608Z,13.80
2022-11-27T06:56:28.436Z,13.80
2022-11-27T06:59:14.440Z,13.80
2022-11-27T07:02:01.494Z,13.80
2022-11-27T07:04:42.164Z,13.80
2022-11-27T07:07:29.511Z,13.80
2022-11-27T07:10:10.136Z,13.80
2022-11-27T07:12:56.505Z,13.80
2022-11-27T07:15:43.444Z,13.80
2022-11-27T07:18:23.492Z,13.80
2022-11-27T07:21:11.470Z,13.80
2022-11-27T07:24:05.450Z,13.80
2022-11-27T07:26:52.458Z,13.80
2022-11-27T07:29:32.553Z,13.90
2022-11-27T07:32:19.464Z,13.90
2022-11-27T07:35:06.431Z,13.90
2022-11-27T07:37:46.913Z,13.90
2022-11-27T07:40:33.431Z,13.80
2022-11-27T07:43:20.447Z,13.90
2022-11-27T07:46:07.508Z,13.90
2022-11-27T07:48:47.939Z,13.80
2022-11-27T07:51:35.456Z,13.80
2022-11-27T07:54:15.940Z,13.80
2022-11-27T07:57:02.464Z,13.80
2022-11-27T07:59:47.136Z,13.80
2022-11-27T08:02:34.452Z,13.80
2022-11-27T08:05:15.045Z,13.80
2022-11-27T08:08:01.570Z,13.80
2022-11-27T08:10:42.320Z,13.90
2022-11-27T08:13:28.464Z,13.80
2022-11-27T08:16:09.285Z,13.80
2022-11-27T08:18:56.487Z,13.80
2022-11-27T08:21:43.479Z,13.80
2022-11-27T08:24:30.439Z,13.80
2022-11-27T08:27:17.434Z,13.90
2022-11-27T08:30:04.591Z,13.90
2022-11-27T08:32:46.481Z,13.90
2022-11-27T08:35:34.563Z,13.90
2022-11-27T08:38:14.439Z,13.90
2022-11-27T08:41:19.437Z,13.90
2022-11-27T08:44:09.284Z,13.90
2022-11-27T08:46:50.513Z,14.00
2022-11-27T08:49:40.571Z,14.10
2022-11-27T08:52:22.663Z,14.30
2022-11-27T08:55:10.452Z,14.50
2022-11-27T08:57:50.597Z,14.60
2022-11-27T09:00:38.498Z,14.70
2022-11-27T09:03:18.499Z,14.80
2022-11-27T09:06:05.439Z,14.90
2022-11-27T09:08:48.518Z,14.90
2022-11-27T09:11:38.452Z,15.00
2022-11-27T09:14:25.473Z,15.10
2022-11-27T09:17:12.570Z,15.10
2022-11-27T09:19:52.431Z,15.20
2022-11-27T09:22:34.337Z,15.20
2022-11-27T09:25:20.454Z,15.20
2022-11-27T09:28:07.546Z,15.30
2022-11-27T09:30:47.575Z,15.40
2022-11-27T09:33:35.474Z,15.40
2022-11-27T09:36:25.441Z,15.50
2022-11-27T09:39:12.438Z,15.50
2022-11-27T09:42:12.448Z,15.60
2022-11-27T09:45:04.445Z,15.60
2022-11-27T09:48:01.508Z,15.70
2022-11-27T09:50:56.471Z,15.80
2022-11-27T09:53:53.502Z,15.80
2022-11-27T09:56:42.448Z,15.80
2022-11-27T09:59:25.481Z,15.80
2022-11-27T10:02:24.564Z,15.90
2022-11-27T10:05:13.806Z,15.90
2022-11-27T10:08:38.442Z,16.00
2022-11-27T10:11:37.539Z,16.00
2022-11-27T10:15:04.451Z,16.00
2022-11-27T10:17:58.448Z,16.10
2022-11-27T10:20:55.499Z,16.10
2022-11-27T10:24:04.436Z,16.10
2022-11-27T10:26:51.527Z,16.10
2022-11-27T10:29:54.453Z,16.10
2022-11-27T10:33:00.756Z,16.10
2022-11-27T10:35:42.899Z,16.20
2022-11-27T10:38:41.477Z,16.20
2022-11-27T10:41:48.902Z,16.20
2022-11-27T10:44:46.438Z,16.20
2022-11-27T10:47:35.448Z,16.20
2022-11-27T10:50:24.488Z,16.20
2022-11-27T10:53:24.455Z,16.20
2022-11-27T10:56:26.440Z,16.20
2022-11-27T10:59:17.500Z,16.20
2022-11-27T11:01:59.488Z,16.20
2022-11-27T11:04:58.552Z,16.30
2022-11-27T11:07:46.582Z,16.30
2022-11-27T11:10:43.435Z,16.30
2022-11-27T11:13:28.320Z,16.30
2022-11-27T11:16:20.534Z,16.40
2022-11-27T11:19:06.112Z,16.30
2022-11-27T11:21:52.461Z,16.40
2022-11-27T11:24:44.515Z,16.40
2022-11-27T11:27:36.448Z,16.40
2022-11-27T11:30:26.341Z,16.40
2022-11-27T11:33:15.460Z,16.40
2022-11-27T11:36:06.968Z,16.40
2022-11-27T11:38:58.460Z,16.40
2022-11-27T11:41:46.436Z,16.50
2022-11-27T11:44:42.751Z,16.50
2022-11-27T11:47:25.219Z,16.50
2022-11-27T11:50:12.519Z,16.50
2022-11-27T11:52:59.538Z,16.50
2022-11-27T11:56:09.439Z,16.50
2022-11-27T11:59:26.451Z,16.60
2022-11-27T12:02:22.502Z,16.60
2022-11-27T12:05:44.464Z,16.60
2022-11-27T12:08:48.544Z,16.60
2022-11-27T12:11:55.471Z,16.60
2022-11-27T12:14:53.543Z,16.60
2022-11-27T12:18:15.451Z,16.60
2022-11-27T12:21:29.444Z,16.60
2022-11-27T12:24:18.517Z,16.70
2022-11-27T12:27:29.462Z,16.70
2022-11-27T12:30:29.468Z,16.70
2022-11-27T12:33:16.224Z,16.70
2022-11-27T12:36:15.459Z,16.70
2022-11-27T12:39:21.455Z,16.70
2022-11-27T12:42:19.019Z,16.70
2022-11-27T12:45:01.966Z,16.70
2022-11-27T12:48:12.540Z,16.70
2022-11-27T12:51:07.933Z,16.70
2022-11-27T12:54:14.445Z,16.70
2022-11-27T12:57:05.521Z,16.70
2022-11-27T13:00:05.464Z,16.70
2022-11-27T13:03:10.703Z,16.70
2022-11-27T13:05:56.525Z,16.70
2022-11-27T13:09:01.473Z,16.70
2022-11-27T13:11:45.507Z,16.70
2022-11-27T13:14:34.448Z,16.80
2022-11-27T13:17:25.461Z,16.70
2022-11-27T13:20:14.736Z,16.70
2022-11-27T13:23:01.483Z,16.80
2022-11-27T13:25:57.508Z,16.80
2022-11-27T13:28:50.465Z,16.80
2022-11-27T13:31:37.391Z,16.80
2022-11-27T13:34:34.475Z,16.80
2022-11-27T13:37:30.238Z,16.70
2022-11-27T13:40:37.448Z,16.70
2022-11-27T13:43:32.401Z,16.70
2022-11-27T13:46:21.490Z,16.70
2022-11-27T13:49:11.470Z,16.80
2022-11-27T13:51:58.460Z,16.70
2022-11-27T13:54:46.473Z,16.80
2022-11-27T13:57:33.455Z,16.80
2022-11-27T14:00:16.223Z,16.80
2022-11-27T14:03:05.465Z,16.70
2022-11-27T14:05:46.240Z,16.80
2022-11-27T14:08:45.552Z,16.70
2022-11-27T14:11:50.915Z,16.80
2022-11-27T14:14:37.476Z,16.80
2022-11-27T14:17:38.459Z,16.80
2022-11-27T14:20:33.495Z,16.70
2022-11-27T14:23:16.510Z,16.80
2022-11-27T14:26:21.451Z,16.70
2022-11-27T14:29:09.473Z,16.70
2022-11-27T14:32:06.514Z,16.70
2022-11-27T14:34:47.893Z,16.70
2022-11-27T14:37:35.447Z,16.70
2022-11-27T14:40:31.533Z,16.70
2022-11-27T14:43:24.485Z,16.70
2022-11-27T14:46:08.241Z,16.70
2022-11-27T14:49:03.464Z,16.70
2022-11-27T14:51:43.655Z,16.70
2022-11-27T14:54:33.477Z,16.70
2022-11-27T14:57:20.702Z,16.70
2022-11-27T15:00:30.485Z,16.70
2022-11-27T15:03:24.534Z,16.70
2022-11-27T15:06:13.468Z,16.70
2022-11-27T15:09:29.843Z,16.70
2022-11-27T15:12:30.553Z,16.70
2022-11-27T15:15:24.464Z,16.70
2022-11-27T15:18:14.506Z,16.70
2022-11-27T15:20:54.471Z,16.70
2022-11-27T15:23:35.780Z,16.70
2022-11-27T15:26:25.248Z,16.70
2022-11-27T15:29:47.455Z,16.70
2022-11-27T15:32:39.471Z,16.70
2022-11-27T15:35:34.455Z,16.70
2022-11-27T15:38:17.528Z,16.70
2022-11-27T15:41:07.478Z,16.70
2022-11-27T15:43:47.540Z,16.70
2022-11-27T15:46:38.497Z,16.70
2022-11-27T15:49:27.484Z,16.60
2022-11-27T15:52:07.963Z,16.70
2022-11-27T15:54:54.507Z,16.70
2022-11-27T15:57:41.503Z,16.70
2022-11-27T16:00:29.495Z,16.60
2022-11-27T16:03:09.956Z,16.70
2022-11-27T16:05:56.480Z,16.60
2022-11-27T16:08:43.522Z,16.70
2022-11-27T16:11:23.564Z,16.60
2022-11-27T16:14:10.490Z,16.70
2022-11-27T16:16:50.757Z,16.70
2022-11-27T16:19:37.464Z,16.70
2022-11-27T16:22:17.583Z,16.60
2022-11-27T16:25:04.493Z,16.70
2022-11-27T16:27:44.764Z,16.70
2022-11-27T16:30:31.488Z,16.70
2022-11-27T16:33:11.595Z,16.70
2022-11-27T16:35:58.452Z,16.70
2022-11-27T16:38:39.544Z,16.70
2022-11-27T16:41:27.478Z,16.70
2022-11-27T16:44:16.623Z,16.70
2022-11-27T16:47:03.471Z,16.70
2022-11-27T16:49:50.500Z,16.60
2022-11-27T16:52:37.470Z,16.70
2022-11-27T16:55:18.512Z,16.70
2022-11-27T16:58:05.481Z,16.70
2022-11-27T17:00:45.613Z,16.60
2022-11-27T17:03:32.484Z,16.60
2022-11-27T17:06:16.615Z,16.60
2022-11-27T17:09:05.491Z,16.70
2022-11-27T17:11:56.508Z,16.60
2022-11-27T17:14:38.693Z,16.60
2022-11-27T17:17:26.507Z,16.60
2022-11-27T17:20:14.497Z,16.60
2022-11-27T17:22:54.594Z,16.60
2022-11-27T17:25:41.470Z,16.60
2022-11-27T17:28:22.532Z,16.60
2022-11-27T17:31:14.534Z,16.60
2022-11-27T17:33:56.812Z,16.60
2022-11-27T17:36:43.494Z,16.60
2022-11-27T17:39:30.504Z,16.60
2022-11-27T17:42:14.505Z,16.70
2022-11-27T17:45:02.493Z,16.60
2022-11-27T17:47:49.463Z,16.70
2022-11-27T17:50:29.538Z,16.70
2022-11-27T17:53:16.468Z,16.70
2022-11-27T17:55:57.275Z,16.70
2022-11-27T17:58:45.488Z,16.70
2022-11-27T18:01:29.220Z,16.70
2022-11-27T18:04:10.494Z,16.70
2022-11-27T18:06:51.037Z,16.70
2022-11-27T18:09:37.508Z,16.70
2022-11-27T18:12:17.938Z,16.70
2022-11-27T18:15:06.496Z,16.70
2022-11-27T18:17:53.484Z,16.70
2022-11-27T18:20:34.595Z,16.70
2022-11-27T18:23:22.496Z,16.70
2022-11-27T18:26:02.608Z,16.70
2022-11-27T18:28:50.509Z,16.70
2022-11-27T18:31:31.624Z,16.70
2022-11-27T18:34:18.488Z,16.70
2022-11-27T18:37:06.478Z,16.70
2022-11-27T18:39:47.676Z,16.70
2022-11-27T18:42:36.503Z,16.70
2022-11-27T18:45:33.032Z,16.70
2022-11-27T18:48:13.500Z,16.70
2022-11-27T18:51:04.758Z,16.70
2022-11-27T18:53:51.488Z,16.70
2022-11-27T18:56:38.596Z,16.70
2022-11-27T18:59:19.500Z,16.70
2022-11-27T19:02:06.652Z,16.70
2022-11-27T19:04:46.471Z,16.70
2022-11-27T19:07:33.591Z,16.70
2022-11-27T19:10:14.524Z,16.70
2022-11-27T19:13:01.556Z,16.70
2022-11-27T19:15:41.468Z,16.70
2022-11-27T19:18:28.589Z,16.70
2022-11-27T19:21:18.486Z,16.70
2022-11-27T19:24:02.603Z,16.70
2022-11-27T19:26:50.490Z,16.70
2022-11-27T19:29:37.580Z,16.70
2022-11-27T19:32:17.492Z,16.70
2022-11-27T19:35:07.331Z,16.70
2022-11-27T19:37:47.491Z,16.70
2022-11-27T19:40:37.495Z,16.70
2022-11-27T19:43:17.740Z,16.70
2022-11-27T19:46:05.521Z,16.70
2022-11-27T19:48:52.501Z,16.70
2022-11-27T19:51:36.514Z,16.70
2022-11-27T19:54:26.520Z,16.70
2022-11-27T19:57:07.025Z,16.70
2022-11-27T19:59:55.508Z,16.70
2022-11-27T20:02:36.497Z,16.70
2022-11-27T20:05:23.526Z,16.70
2022-11-27T20:08:10.660Z,16.70
2022-11-27T20:10:55.498Z,16.70
2022-11-27T20:13:35.962Z,16.70
2022-11-27T20:16:28.549Z,16.70
2022-11-27T20:19:09.088Z,16.70
2022-11-27T20:21:56.509Z,16.70
2022-11-27T20:25:11.645Z,16.70
2022-11-27T20:28:04.508Z,16.70
2022-11-27T20:30:44.992Z,16.60
2022-11-27T20:33:31.572Z,16.60
2022-11-27T20:36:20.496Z,16.70
2022-11-27T20:39:08.489Z,16.60
2022-11-27T20:41:50.316Z,16.70
2022-11-27T20:44:37.510Z,16.60
2022-11-27T20:47:24.484Z,16.60
2022-11-27T20:50:11.500Z,16.60
2022-11-27T20:52:58.511Z,16.70
2022-11-27T20:55:40.563Z,16.70
2022-11-27T20:58:27.507Z,16.50
2022-11-27T21:01:07.562Z,16.40
2022-11-27T21:03:55.494Z,16.30
2022-11-27T21:06:44.516Z,16.10
2022-11-27T21:09:25.014Z,15.90
2022-11-27T21:12:12.488Z,15.80
2022-11-27T21:14:59.616Z,15.70
2022-11-27T21:17:39.500Z,15.50
2022-11-27T21:20:20.676Z,15.50
2022-11-27T21:23:07.544Z,15.40
2022-11-27T21:26:01.477Z,15.30
2022-11-27T21:28:51.474Z,15.20
2022-11-27T21:31:37.433Z,15.10
2022-11-27T21:34:24.525Z,15.10
2022-11-27T21:37:04.637Z,15.00
2022-11-27T21:39:51.478Z,15.00
2022-11-27T21:42:32.643Z,14.90
2022-11-27T21:45:19.487Z,14.90
2022-11-27T21:47:59.539Z,14.80
2022-11-27T21:50:46.494Z,14.80
2022-11-27T21:53:26.633Z,14.70
2022-11-27T21:56:16.496Z,14.70
2022-11-27T21:59:04.480Z,14.60
2022-11-27T22:01:52.713Z,14.60
2022-11-27T22:04:33.580Z,14.50
2022-11-27T22:07:13.989Z,14.50
2022-11-27T22:10:00.566Z,14.50
2022-11-27T22:12:47.540Z,14.40
2022-11-27T22:15:27.492Z,14.40
2022-11-27T22:18:14.489Z,14.30
2022-11-27T22:21:02.482Z,14.40
2022-11-27T22:23:49.537Z,14.40
2022-11-27T22:26:31.601Z,14.30
2022-11-27T22:29:18.508Z,14.30
2022-11-27T22:32:06.484Z,14.30
2022-11-27T22:34:47.029Z,14.30
2022-11-27T22:37:33.494Z,14.20
2022-11-27T22:40:14.947Z,14.30
2022-11-27T22:43:02.508Z,14.20
2022-11-27T22:45:54.592Z,14.30
2022-11-27T22:48:34.675Z,14.30
2022-11-27T22:51:21.526Z,14.30
2022-11-27T22:54:01.555Z,14.30
2022-11-27T22:56:48.555Z,14.20
2022-11-27T22:59:35.504Z,14.30
2022-11-27T23:02:22.567Z,14.30
2022-11-27T23:05:24.523Z,14.30
2022-11-27T23:08:11.563Z,14.30
2022-11-27T23:10:53.544Z,14.20
2022-11-27T23:13:42.835Z,14.20
2022-11-27T23:16:27.682Z,14.20
2022-11-27T23:19:14.475Z,14.20
2022-11-27T23:21:54.577Z,14.20
2022-11-27T23:24:41.709Z,14.20
2022-11-27T23:27:35.579Z,14.20
2022-11-27T23:30:22.550Z,14.20
2022-11-27T23:33:02.540Z,14.20
2022-11-27T23:35:49.513Z,14.20
2022-11-27T23:38:29.521Z,14.20
2022-11-27T23:41:21.502Z,14.20
2022-11-27T23:44:09.491Z,14.20
2022-11-27T23:46:56.653Z,14.10
2022-11-27T23:49:36.516Z,14.20
2022-11-27T23:52:17.501Z,14.10
2022-11-27T23:55:04.625Z,14.10
2022-11-27T23:57:51.504Z,14.10
